PWSweather.com
Personal Weather Stations
Station Observations
KGAROSWE1
Roswell (historic Mill Village), Roswell, GA 30075

Roswell (historic Mill Village)Roswell, GA 30075

Lat: 34.014545, Lon: -84.358498

Elevation: 1025

Station Type: Davis Vantage Vue

http://www.roswellweather.net

Latest ConditionsUpdated 10:00:31 PM EST Monday, Mar 2, 2015
Currently Today's Max Today's Min Today's Average
Temperature 51.7°F10.9°C 61.4°F16.3°C 45.0°F7.2°C 52.2°F11.2°C
Dew Point 45.7°F7.6°C 52.7°F11.5°C 43.4°F6.3°C 46.9°F8.3°C
Winds Calm Calm 6.0 mph WSW9.7 kmh WSW - 1.4 mph 2.3 kmh
Wind Gusts 1.0 mph1.6 kmh 8.0 mph12.9 kmh - -
Humidity 80% 99% 65% 83%
Pressure 30.26 in1024.7 mb 30.38 in1028.8 mb 30.24 in1024.0 mb -
Hour Temp Dew Point Humidity Winds Wind Gusts Pressure Precip Precip Rate Daily Precip Total
10:00 PM 51.7°F10.9°C 45.7°F7.6°C 80% Calm Calm 1.0 mph1.6 kmh 30.26 in1024.7 mb 0.00 in0.0 mm 0.00 in/hr0.0 mm/hr 0.00 in0.0 mm
09:52 PM 52.2°F11.2°C 45.2°F7.3°C 77% Calm Calm -- 30.26 in1024.7 mb 0.00 in0.0 mm 0.00 in/hr0.0 mm/hr 0.00 in0.0 mm
09:44 PM 52.2°F11.2°C 44.9°F7.2°C 76% Calm Calm 1.0 mph1.6 kmh 30.27 in1025.1 mb 0.00 in0.0 mm 0.00 in/hr0.0 mm/hr 0.00 in0.0 mm
09:36 PM 52.4°F11.3°C 45.1°F7.3°C 76% Calm Calm -- 30.27 in1025.1 mb 0.00 in0.0 mm 0.00 in/hr0.0 mm/hr 0.00 in0.0 mm
09:28 PM 52.5°F11.4°C 45.2°F7.3°C 76% Calm Calm -- 30.28 in1025.4 mb 0.00 in0.0 mm 0.00 in/hr0.0 mm/hr 0.00 in0.0 mm
09:20 PM 52.6°F11.4°C 45.3°F7.4°C 76% Calm Calm 1.0 mph1.6 kmh 30.27 in1025.1 mb 0.00 in0.0 mm 0.00 in/hr0.0 mm/hr 0.00 in0.0 mm
09:12 PM 52.7°F11.5°C 45.4°F7.4°C 76% Calm Calm -- 30.28 in1025.4 mb 0.00 in0.0 mm 0.00 in/hr0.0 mm/hr 0.00 in0.0 mm
09:04 PM 52.8°F11.6°C 45.5°F7.5°C 76% Calm Calm 2.0 mph3.2 kmh 30.27 in1025.1 mb 0.00 in0.0 mm 0.00 in/hr0.0 mm/hr 0.00 in0.0 mm
08:56 PM 52.9°F11.6°C 45.6°F7.6°C 76% Calm Calm 2.0 mph3.2 kmh 30.27 in1025.1 mb 0.00 in0.0 mm 0.00 in/hr0.0 mm/hr 0.00 in0.0 mm
08:48 PM 53.0°F11.7°C 46.0°F7.8°C 77% Calm Calm -- 30.27 in1025.1 mb 0.00 in0.0 mm 0.00 in/hr0.0 mm/hr 0.00 in0.0 mm
08:40 PM 53.1°F11.7°C 46.1°F7.8°C 77% Calm Calm 1.0 mph1.6 kmh 30.27 in1025.1 mb 0.00 in0.0 mm 0.00 in/hr0.0 mm/hr 0.00 in0.0 mm
08:32 PM 53.2°F11.8°C 45.8°F7.7°C 76% Calm Calm 1.0 mph1.6 kmh 30.27 in1025.1 mb 0.00 in0.0 mm 0.00 in/hr0.0 mm/hr 0.00 in0.0 mm
08:24 PM 53.4°F11.9°C 46.0°F7.8°C 76% Calm Calm 2.0 mph3.2 kmh 30.27 in1025.1 mb 0.00 in0.0 mm 0.00 in/hr0.0 mm/hr 0.00 in0.0 mm
08:16 PM 53.7°F12.1°C 46.3°F7.9°C 76% 1.0 mph W1.6 kmh W 1.0 mph1.6 kmh 30.27 in1025.1 mb 0.00 in0.0 mm 0.00 in/hr0.0 mm/hr 0.00 in0.0 mm
08:08 PM 53.8°F12.1°C 46.4°F8.0°C 76% Calm Calm -- 30.26 in1024.7 mb 0.00 in0.0 mm 0.00 in/hr0.0 mm/hr 0.00 in0.0 mm
08:00 PM 54.0°F12.2°C 46.6°F8.1°C 76% Calm Calm 2.0 mph3.2 kmh 30.26 in1024.7 mb 0.00 in0.0 mm 0.00 in/hr0.0 mm/hr 0.00 in0.0 mm
07:52 PM 54.2°F12.3°C 46.5°F8.1°C 75% Calm Calm -- 30.26 in1024.7 mb 0.00 in0.0 mm 0.00 in/hr0.0 mm/hr 0.00 in0.0 mm
07:44 PM 54.4°F12.4°C 46.7°F8.2°C 75% 1.0 mph W1.6 kmh W 1.0 mph1.6 kmh 30.26 in1024.7 mb 0.00 in0.0 mm 0.00 in/hr0.0 mm/hr 0.00 in0.0 mm
07:36 PM 54.6°F12.6°C 46.9°F8.3°C 75% Calm Calm 2.0 mph3.2 kmh 30.26 in1024.7 mb 0.00 in0.0 mm 0.00 in/hr0.0 mm/hr 0.00 in0.0 mm
07:28 PM 54.8°F12.7°C 46.7°F8.2°C 74% Calm Calm -- 30.25 in1024.4 mb 0.00 in0.0 mm 0.00 in/hr0.0 mm/hr 0.00 in0.0 mm
07:20 PM 55.0°F12.8°C 46.5°F8.1°C 73% 1.0 mph W1.6 kmh W 2.0 mph3.2 kmh 30.26 in1024.7 mb 0.00 in0.0 mm 0.00 in/hr0.0 mm/hr 0.00 in0.0 mm
07:12 PM 55.3°F12.9°C 46.8°F8.2°C 73% Calm Calm 1.0 mph1.6 kmh 30.25 in1024.4 mb 0.00 in0.0 mm 0.00 in/hr0.0 mm/hr 0.00 in0.0 mm
07:04 PM 55.5°F13.1°C 47.0°F8.3°C 73% Calm Calm -- 30.25 in1024.4 mb 0.00 in0.0 mm 0.00 in/hr0.0 mm/hr 0.00 in0.0 mm
06:56 PM 55.7°F13.2°C 46.8°F8.2°C 72% 2.0 mph W3.2 kmh W 2.0 mph3.2 kmh 30.26 in1024.7 mb 0.00 in0.0 mm 0.00 in/hr0.0 mm/hr 0.00 in0.0 mm
06:48 PM 55.9°F13.3°C 47.0°F8.3°C 72% Calm Calm 2.0 mph3.2 kmh 30.26 in1024.7 mb 0.00 in0.0 mm 0.00 in/hr0.0 mm/hr 0.00 in0.0 mm
06:40 PM 56.1°F13.4°C 47.2°F8.4°C 72% Calm Calm 3.0 mph4.8 kmh 30.26 in1024.7 mb 0.00 in0.0 mm 0.00 in/hr0.0 mm/hr 0.00 in0.0 mm
06:32 PM 56.4°F13.6°C 47.9°F8.8°C 73% Calm Calm -- 30.25 in1024.4 mb 0.00 in0.0 mm 0.00 in/hr0.0 mm/hr 0.00 in0.0 mm
06:24 PM 56.6°F13.7°C 47.7°F8.7°C 72% Calm Calm 1.0 mph1.6 kmh 30.25 in1024.4 mb 0.00 in0.0 mm 0.00 in/hr0.0 mm/hr 0.00 in0.0 mm
06:16 PM 56.8°F13.8°C 47.5°F8.6°C 71% Calm Calm -- 30.25 in1024.4 mb 0.00 in0.0 mm 0.00 in/hr0.0 mm/hr 0.00 in0.0 mm
06:08 PM 57.0°F13.9°C 47.7°F8.7°C 71% Calm Calm 1.0 mph1.6 kmh 30.25 in1024.4 mb 0.00 in0.0 mm 0.00 in/hr0.0 mm/hr 0.00 in0.0 mm
06:00 PM 57.4°F14.1°C 48.1°F8.9°C 71% Calm Calm 2.0 mph3.2 kmh 30.25 in1024.4 mb 0.00 in0.0 mm 0.00 in/hr0.0 mm/hr 0.00 in0.0 mm
05:52 PM 57.7°F14.3°C 48.0°F8.9°C 70% Calm Calm 1.0 mph1.6 kmh 30.25 in1024.4 mb 0.00 in0.0 mm 0.00 in/hr0.0 mm/hr 0.00 in0.0 mm
05:44 PM 58.0°F14.4°C 48.3°F9.1°C 70% Calm Calm 2.0 mph3.2 kmh 30.24 in1024.0 mb 0.00 in0.0 mm 0.00 in/hr0.0 mm/hr 0.00 in0.0 mm
05:36 PM 58.5°F14.7°C 48.4°F9.1°C 69% 4.0 mph WSW6.4 kmh WSW 4.0 mph6.4 kmh 30.24 in1024.0 mb 0.00 in0.0 mm 0.00 in/hr0.0 mm/hr 0.00 in0.0 mm
05:28 PM 59.4°F15.2°C 48.5°F9.2°C 67% 2.0 mph SW3.2 kmh SW 4.0 mph6.4 kmh 30.24 in1024.0 mb 0.00 in0.0 mm 0.00 in/hr0.0 mm/hr 0.00 in0.0 mm
05:20 PM 60.1°F15.6°C 49.1°F9.5°C 67% 1.0 mph WSW1.6 kmh WSW 3.0 mph4.8 kmh 30.24 in1024.0 mb 0.00 in0.0 mm 0.00 in/hr0.0 mm/hr 0.00 in0.0 mm
05:12 PM 60.4°F15.8°C 49.0°F9.4°C 66% 1.0 mph W1.6 kmh W 3.0 mph4.8 kmh 30.24 in1024.0 mb 0.00 in0.0 mm 0.00 in/hr0.0 mm/hr 0.00 in0.0 mm
05:04 PM 60.4°F15.8°C 49.4°F9.7°C 67% Calm Calm 4.0 mph6.4 kmh 30.24 in1024.0 mb 0.00 in0.0 mm 0.00 in/hr0.0 mm/hr 0.00 in0.0 mm
04:56 PM 60.3°F15.7°C 48.9°F9.4°C 66% 1.0 mph WSW1.6 kmh WSW 3.0 mph4.8 kmh 30.24 in1024.0 mb 0.00 in0.0 mm 0.00 in/hr0.0 mm/hr 0.00 in0.0 mm
04:48 PM 60.6°F15.9°C 49.2°F9.6°C 66% 3.0 mph NNW4.8 kmh NNW 3.0 mph4.8 kmh 30.24 in1024.0 mb 0.00 in0.0 mm 0.00 in/hr0.0 mm/hr 0.00 in0.0 mm
04:40 PM 60.7°F15.9°C 49.3°F9.6°C 66% 3.0 mph WSW4.8 kmh WSW 5.0 mph8.0 kmh 30.24 in1024.0 mb 0.00 in0.0 mm 0.00 in/hr0.0 mm/hr 0.00 in0.0 mm
04:32 PM 60.4°F15.8°C 49.4°F9.7°C 67% 2.0 mph WSW3.2 kmh WSW 6.0 mph9.7 kmh 30.24 in1024.0 mb 0.00 in0.0 mm 0.00 in/hr0.0 mm/hr 0.00 in0.0 mm
04:24 PM 60.8°F16.0°C 49.0°F9.4°C 65% 1.0 mph WSW1.6 kmh WSW 5.0 mph8.0 kmh 30.24 in1024.0 mb 0.00 in0.0 mm 0.00 in/hr0.0 mm/hr 0.00 in0.0 mm
04:16 PM 61.2°F16.2°C 50.2°F10.1°C 67% 4.0 mph WSW6.4 kmh WSW 6.0 mph9.7 kmh 30.24 in1024.0 mb 0.00 in0.0 mm 0.00 in/hr0.0 mm/hr 0.00 in0.0 mm
04:08 PM 60.8°F16.0°C 49.0°F9.4°C 65% 3.0 mph NNW4.8 kmh NNW 6.0 mph9.7 kmh 30.24 in1024.0 mb 0.00 in0.0 mm 0.00 in/hr0.0 mm/hr 0.00 in0.0 mm
04:00 PM 61.2°F16.2°C 49.4°F9.7°C 65% Calm Calm 4.0 mph6.4 kmh 30.25 in1024.4 mb 0.00 in0.0 mm 0.00 in/hr0.0 mm/hr 0.00 in0.0 mm
03:52 PM 61.0°F16.1°C 49.6°F9.8°C 66% 5.0 mph WSW8.0 kmh WSW 5.0 mph8.0 kmh 30.24 in1024.0 mb 0.00 in0.0 mm 0.00 in/hr0.0 mm/hr 0.00 in0.0 mm
03:44 PM 61.4°F16.3°C 50.0°F10.0°C 66% 1.0 mph NW1.6 kmh NW 5.0 mph8.0 kmh 30.25 in1024.4 mb 0.00 in0.0 mm 0.00 in/hr0.0 mm/hr 0.00 in0.0 mm
03:36 PM 60.2°F15.7°C 49.6°F9.8°C 68% Calm Calm 6.0 mph9.7 kmh 30.25 in1024.4 mb 0.00 in0.0 mm 0.00 in/hr0.0 mm/hr 0.00 in0.0 mm
03:28 PM 60.7°F15.9°C 49.7°F9.8°C 67% 2.0 mph W3.2 kmh W 4.0 mph6.4 kmh 30.25 in1024.4 mb 0.00 in0.0 mm 0.00 in/hr0.0 mm/hr 0.00 in0.0 mm
03:20 PM 61.0°F16.1°C 50.0°F10.0°C 67% Calm Calm 4.0 mph6.4 kmh 30.26 in1024.7 mb 0.00 in0.0 mm 0.00 in/hr0.0 mm/hr 0.00 in0.0 mm
03:12 PM 61.3°F16.3°C 49.9°F9.9°C 66% 1.0 mph WSW1.6 kmh WSW 4.0 mph6.4 kmh 30.25 in1024.4 mb 0.00 in0.0 mm 0.00 in/hr0.0 mm/hr 0.00 in0.0 mm
03:04 PM 60.6°F15.9°C 50.0°F10.0°C 68% 1.0 mph NW1.6 kmh NW 4.0 mph6.4 kmh 30.26 in1024.7 mb 0.00 in0.0 mm 0.00 in/hr0.0 mm/hr 0.00 in0.0 mm
02:56 PM 60.9°F16.1°C 49.9°F9.9°C 67% 2.0 mph W3.2 kmh W 7.0 mph11.3 kmh 30.26 in1024.7 mb 0.00 in0.0 mm 0.00 in/hr0.0 mm/hr 0.00 in0.0 mm
02:48 PM 60.4°F15.8°C 49.8°F9.9°C 68% 2.0 mph NE3.2 kmh NE 4.0 mph6.4 kmh 30.26 in1024.7 mb 0.00 in0.0 mm 0.00 in/hr0.0 mm/hr 0.00 in0.0 mm
02:40 PM 60.8°F16.0°C 50.6°F10.3°C 69% 5.0 mph SW8.0 kmh SW 7.0 mph11.3 kmh 30.27 in1025.1 mb 0.00 in0.0 mm 0.00 in/hr0.0 mm/hr 0.00 in0.0 mm
02:32 PM 60.5°F15.8°C 50.3°F10.2°C 69% 6.0 mph WSW9.7 kmh WSW 7.0 mph11.3 kmh 30.27 in1025.1 mb 0.00 in0.0 mm 0.00 in/hr0.0 mm/hr 0.00 in0.0 mm
02:24 PM 60.2°F15.7°C 50.8°F10.4°C 71% 3.0 mph NW4.8 kmh NW 3.0 mph4.8 kmh 30.27 in1025.1 mb 0.00 in0.0 mm 0.00 in/hr0.0 mm/hr 0.00 in0.0 mm
02:16 PM 59.8°F15.4°C 50.4°F10.2°C 71% Calm Calm 1.0 mph1.6 kmh 30.27 in1025.1 mb 0.00 in0.0 mm 0.00 in/hr0.0 mm/hr 0.00 in0.0 mm
02:08 PM 59.8°F15.4°C 50.0°F10.0°C 70% 1.0 mph W1.6 kmh W 4.0 mph6.4 kmh 30.27 in1025.1 mb 0.00 in0.0 mm 0.00 in/hr0.0 mm/hr 0.00 in0.0 mm
02:00 PM 59.9°F15.5°C 50.1°F10.1°C 70% 4.0 mph N6.4 kmh N 6.0 mph9.7 kmh 30.27 in1025.1 mb 0.00 in0.0 mm 0.00 in/hr0.0 mm/hr 0.00 in0.0 mm
01:52 PM 60.1°F15.6°C 50.7°F10.4°C 71% 2.0 mph W3.2 kmh W 4.0 mph6.4 kmh 30.28 in1025.4 mb 0.00 in0.0 mm 0.00 in/hr0.0 mm/hr 0.00 in0.0 mm
01:44 PM 59.7°F15.4°C 51.0°F10.6°C 73% 2.0 mph NNW3.2 kmh NNW 7.0 mph11.3 kmh 30.27 in1025.1 mb 0.00 in0.0 mm 0.00 in/hr0.0 mm/hr 0.00 in0.0 mm
01:36 PM 59.1°F15.1°C 50.8°F10.4°C 74% Calm Calm 5.0 mph8.0 kmh 30.28 in1025.4 mb 0.00 in0.0 mm 0.00 in/hr0.0 mm/hr 0.00 in0.0 mm
01:28 PM 58.9°F14.9°C 50.6°F10.3°C 74% 1.0 mph WSW1.6 kmh WSW 3.0 mph4.8 kmh 30.28 in1025.4 mb 0.00 in0.0 mm 0.00 in/hr0.0 mm/hr 0.00 in0.0 mm
01:20 PM 59.3°F15.2°C 51.4°F10.8°C 75% Calm Calm 4.0 mph6.4 kmh 30.28 in1025.4 mb 0.00 in0.0 mm 0.00 in/hr0.0 mm/hr 0.00 in0.0 mm
01:12 PM 59.8°F15.4°C 50.8°F10.4°C 72% 2.0 mph NNW3.2 kmh NNW 8.0 mph12.9 kmh 30.29 in1025.7 mb 0.00 in0.0 mm 0.00 in/hr0.0 mm/hr 0.00 in0.0 mm
01:04 PM 60.5°F15.8°C 51.4°F10.8°C 72% 5.0 mph WSW8.0 kmh WSW 6.0 mph9.7 kmh 30.30 in1026.1 mb 0.00 in0.0 mm 0.00 in/hr0.0 mm/hr 0.00 in0.0 mm
12:56 PM 60.3°F15.7°C 51.3°F10.7°C 72% 2.0 mph NW3.2 kmh NW 2.0 mph3.2 kmh 30.30 in1026.1 mb 0.00 in0.0 mm 0.00 in/hr0.0 mm/hr 0.00 in0.0 mm
12:48 PM 59.9°F15.5°C 51.6°F10.9°C 74% 3.0 mph WSW4.8 kmh WSW 5.0 mph8.0 kmh 30.31 in1026.4 mb 0.00 in0.0 mm 0.00 in/hr0.0 mm/hr 0.00 in0.0 mm
12:40 PM 60.3°F15.7°C 51.6°F10.9°C 73% 4.0 mph W6.4 kmh W 5.0 mph8.0 kmh 30.31 in1026.4 mb 0.00 in0.0 mm 0.00 in/hr0.0 mm/hr 0.00 in0.0 mm
12:32 PM 60.7°F15.9°C 52.0°F11.1°C 73% 4.0 mph SW6.4 kmh SW 5.0 mph8.0 kmh 30.32 in1026.8 mb 0.00 in0.0 mm 0.00 in/hr0.0 mm/hr 0.00 in0.0 mm
12:24 PM 60.5°F15.8°C 52.2°F11.2°C 74% 3.0 mph WSW4.8 kmh WSW 4.0 mph6.4 kmh 30.32 in1026.8 mb 0.00 in0.0 mm 0.00 in/hr0.0 mm/hr 0.00 in0.0 mm
12:16 PM 60.9°F16.1°C 52.2°F11.2°C 73% 2.0 mph S3.2 kmh S 2.0 mph3.2 kmh 30.32 in1026.8 mb 0.00 in0.0 mm 0.00 in/hr0.0 mm/hr 0.00 in0.0 mm
12:08 PM 60.8°F16.0°C 52.5°F11.4°C 74% 4.0 mph WSW6.4 kmh WSW 4.0 mph6.4 kmh 30.32 in1026.8 mb 0.00 in0.0 mm 0.00 in/hr0.0 mm/hr 0.00 in0.0 mm
12:00 PM 61.0°F16.1°C 51.9°F11.1°C 72% 2.0 mph NW3.2 kmh NW 4.0 mph6.4 kmh 30.32 in1026.8 mb 0.00 in0.0 mm 0.00 in/hr0.0 mm/hr 0.00 in0.0 mm
11:52 AM 60.3°F15.7°C 52.7°F11.5°C 76% 1.0 mph NW1.6 kmh NW 3.0 mph4.8 kmh 30.32 in1026.8 mb 0.00 in0.0 mm 0.00 in/hr0.0 mm/hr 0.00 in0.0 mm
11:44 AM 59.4°F15.2°C 51.8°F11.0°C 76% 2.0 mph SSW3.2 kmh SSW 3.0 mph4.8 kmh 30.32 in1026.8 mb 0.00 in0.0 mm 0.00 in/hr0.0 mm/hr 0.00 in0.0 mm
11:36 AM 59.6°F15.3°C 52.0°F11.1°C 76% 3.0 mph NW4.8 kmh NW 5.0 mph8.0 kmh 30.32 in1026.8 mb 0.00 in0.0 mm 0.00 in/hr0.0 mm/hr 0.00 in0.0 mm
11:28 AM 59.3°F15.2°C 52.1°F11.2°C 77% 1.0 mph N1.6 kmh N 5.0 mph8.0 kmh 30.32 in1026.8 mb 0.00 in0.0 mm 0.00 in/hr0.0 mm/hr 0.00 in0.0 mm
11:20 AM 58.5°F14.7°C 52.0°F11.1°C 79% 1.0 mph WSW1.6 kmh WSW 4.0 mph6.4 kmh 30.32 in1026.8 mb 0.00 in0.0 mm 0.00 in/hr0.0 mm/hr 0.00 in0.0 mm
11:12 AM 57.4°F14.1°C 52.0°F11.1°C 82% 1.0 mph W1.6 kmh W 2.0 mph3.2 kmh 30.33 in1027.1 mb 0.00 in0.0 mm 0.00 in/hr0.0 mm/hr 0.00 in0.0 mm
11:04 AM 56.4°F13.6°C 51.6°F10.9°C 84% 1.0 mph WSW1.6 kmh WSW 3.0 mph4.8 kmh 30.32 in1026.8 mb 0.00 in0.0 mm 0.00 in/hr0.0 mm/hr 0.00 in0.0 mm
10:56 AM 56.4°F13.6°C 51.3°F10.7°C 83% 2.0 mph SW3.2 kmh SW 2.0 mph3.2 kmh 30.33 in1027.1 mb 0.00 in0.0 mm 0.00 in/hr0.0 mm/hr 0.00 in0.0 mm
10:48 AM 56.0°F13.3°C 51.2°F10.7°C 84% 1.0 mph SW1.6 kmh SW 2.0 mph3.2 kmh 30.33 in1027.1 mb 0.00 in0.0 mm 0.00 in/hr0.0 mm/hr 0.00 in0.0 mm
10:40 AM 55.4°F13.0°C 51.3°F10.7°C 86% Calm Calm 3.0 mph4.8 kmh 30.34 in1027.4 mb 0.00 in0.0 mm 0.00 in/hr0.0 mm/hr 0.00 in0.0 mm
10:32 AM 54.4°F12.4°C 50.9°F10.5°C 88% 2.0 mph SW3.2 kmh SW 4.0 mph6.4 kmh 30.33 in1027.1 mb 0.00 in0.0 mm 0.00 in/hr0.0 mm/hr 0.00 in0.0 mm
10:24 AM 53.2°F11.8°C 50.4°F10.2°C 90% 1.0 mph SSE1.6 kmh SSE 4.0 mph6.4 kmh 30.34 in1027.4 mb 0.00 in0.0 mm 0.00 in/hr0.0 mm/hr 0.00 in0.0 mm
10:16 AM 52.6°F11.4°C 49.8°F9.9°C 90% 2.0 mph N3.2 kmh N 5.0 mph8.0 kmh 30.34 in1027.4 mb 0.00 in0.0 mm 0.00 in/hr0.0 mm/hr 0.00 in0.0 mm
10:08 AM 52.4°F11.3°C 49.9°F9.9°C 91% 1.0 mph WNW1.6 kmh WNW 4.0 mph6.4 kmh 30.35 in1027.8 mb 0.00 in0.0 mm 0.00 in/hr0.0 mm/hr 0.00 in0.0 mm
10:00 AM 52.1°F11.2°C 49.9°F9.9°C 92% 1.0 mph NNW1.6 kmh NNW 5.0 mph8.0 kmh 30.35 in1027.8 mb 0.00 in0.0 mm 0.00 in/hr0.0 mm/hr 0.00 in0.0 mm
09:52 AM 51.6°F10.9°C 49.9°F9.9°C 94% 5.0 mph NNE8.0 kmh NNE 5.0 mph8.0 kmh 30.34 in1027.4 mb 0.00 in0.0 mm 0.00 in/hr0.0 mm/hr 0.00 in0.0 mm
09:44 AM 51.2°F10.7°C 50.1°F10.1°C 96% 2.0 mph NNW3.2 kmh NNW 7.0 mph11.3 kmh 30.34 in1027.4 mb 0.00 in0.0 mm 0.00 in/hr0.0 mm/hr 0.00 in0.0 mm
09:36 AM 51.1°F10.6°C 50.6°F10.3°C 98% 2.0 mph NW3.2 kmh NW 3.0 mph4.8 kmh 30.34 in1027.4 mb 0.00 in0.0 mm 0.00 in/hr0.0 mm/hr 0.00 in0.0 mm
09:28 AM 50.9°F10.5°C 50.4°F10.2°C 98% Calm Calm 1.0 mph1.6 kmh 30.34 in1027.4 mb 0.00 in0.0 mm 0.00 in/hr0.0 mm/hr 0.00 in0.0 mm
09:20 AM 50.5°F10.3°C 50.2°F10.1°C 99% 1.0 mph N1.6 kmh N 1.0 mph1.6 kmh 30.33 in1027.1 mb 0.00 in0.0 mm 0.00 in/hr0.0 mm/hr 0.00 in0.0 mm
09:12 AM 50.0°F10.0°C 49.7°F9.8°C 99% 1.0 mph WNW1.6 kmh WNW 1.0 mph1.6 kmh 30.33 in1027.1 mb 0.00 in0.0 mm 0.00 in/hr0.0 mm/hr 0.00 in0.0 mm
09:04 AM 49.4°F9.7°C 48.9°F9.4°C 98% Calm Calm 2.0 mph3.2 kmh 30.33 in1027.1 mb 0.00 in0.0 mm 0.00 in/hr0.0 mm/hr 0.00 in0.0 mm
08:56 AM 48.8°F9.3°C 48.3°F9.1°C 98% Calm Calm 4.0 mph6.4 kmh 30.33 in1027.1 mb 0.00 in0.0 mm 0.00 in/hr0.0 mm/hr 0.00 in0.0 mm
08:48 AM 45.0°F7.2°C 43.7°F6.5°C 95% 2.0 mph SW3.2 kmh SW 2.0 mph3.2 kmh 30.33 in1027.1 mb 0.00 in0.0 mm 0.00 in/hr0.0 mm/hr 0.00 in0.0 mm
08:40 AM 45.0°F7.2°C 43.7°F6.5°C 95% 2.0 mph SW3.2 kmh SW 2.0 mph3.2 kmh 30.34 in1027.4 mb 0.00 in0.0 mm 0.00 in/hr0.0 mm/hr 0.00 in0.0 mm
08:32 AM 45.0°F7.2°C 43.7°F6.5°C 95% 2.0 mph SW3.2 kmh SW 2.0 mph3.2 kmh 30.33 in1027.1 mb 0.00 in0.0 mm 0.00 in/hr0.0 mm/hr 0.00 in0.0 mm
08:24 AM 45.0°F7.2°C 43.7°F6.5°C 95% 2.0 mph SW3.2 kmh SW 2.0 mph3.2 kmh 30.33 in1027.1 mb 0.00 in0.0 mm 0.00 in/hr0.0 mm/hr 0.00 in0.0 mm
08:16 AM 45.0°F7.2°C 43.7°F6.5°C 95% 2.0 mph SW3.2 kmh SW 2.0 mph3.2 kmh 30.33 in1027.1 mb 0.00 in0.0 mm 0.00 in/hr0.0 mm/hr 0.00 in0.0 mm
08:08 AM 45.0°F7.2°C 43.7°F6.5°C 95% 2.0 mph SW3.2 kmh SW 2.0 mph3.2 kmh 30.33 in1027.1 mb 0.00 in0.0 mm 0.00 in/hr0.0 mm/hr 0.00 in0.0 mm
08:00 AM 45.0°F7.2°C 43.7°F6.5°C 95% 2.0 mph SW3.2 kmh SW 2.0 mph3.2 kmh 30.33 in1027.1 mb 0.00 in0.0 mm 0.00 in/hr0.0 mm/hr 0.00 in0.0 mm
07:52 AM 45.0°F7.2°C 43.7°F6.5°C 95% 2.0 mph SW3.2 kmh SW 2.0 mph3.2 kmh 30.33 in1027.1 mb 0.00 in0.0 mm 0.00 in/hr0.0 mm/hr 0.00 in0.0 mm
07:44 AM 45.0°F7.2°C 43.7°F6.5°C 95% 2.0 mph SW3.2 kmh SW 2.0 mph3.2 kmh 30.32 in1026.8 mb 0.00 in0.0 mm 0.00 in/hr0.0 mm/hr 0.00 in0.0 mm
07:36 AM 45.0°F7.2°C 43.7°F6.5°C 95% 2.0 mph SW3.2 kmh SW 2.0 mph3.2 kmh 30.32 in1026.8 mb 0.00 in0.0 mm 0.00 in/hr0.0 mm/hr 0.00 in0.0 mm
07:28 AM 45.0°F7.2°C 43.7°F6.5°C 95% 2.0 mph SW3.2 kmh SW 2.0 mph3.2 kmh 30.32 in1026.8 mb 0.00 in0.0 mm 0.00 in/hr0.0 mm/hr 0.00 in0.0 mm
07:20 AM 45.0°F7.2°C 43.7°F6.5°C 95% 2.0 mph SW3.2 kmh SW 2.0 mph3.2 kmh 30.32 in1026.8 mb 0.00 in0.0 mm 0.00 in/hr0.0 mm/hr 0.00 in0.0 mm
07:12 AM 45.0°F7.2°C 43.7°F6.5°C 95% 2.0 mph SW3.2 kmh SW 2.0 mph3.2 kmh 30.32 in1026.8 mb 0.00 in0.0 mm 0.00 in/hr0.0 mm/hr 0.00 in0.0 mm
07:04 AM 45.0°F7.2°C 43.7°F6.5°C 95% 2.0 mph SW3.2 kmh SW 2.0 mph3.2 kmh 30.31 in1026.4 mb 0.00 in0.0 mm 0.00 in/hr0.0 mm/hr 0.00 in0.0 mm
06:56 AM 45.0°F7.2°C 43.7°F6.5°C 95% 2.0 mph SW3.2 kmh SW 2.0 mph3.2 kmh 30.31 in1026.4 mb 0.00 in0.0 mm 0.00 in/hr0.0 mm/hr 0.00 in0.0 mm
06:48 AM 45.0°F7.2°C 43.7°F6.5°C 95% 2.0 mph SW3.2 kmh SW 2.0 mph3.2 kmh 30.31 in1026.4 mb 0.00 in0.0 mm 0.00 in/hr0.0 mm/hr 0.00 in0.0 mm
06:40 AM 45.0°F7.2°C 43.7°F6.5°C 95% 2.0 mph SW3.2 kmh SW 2.0 mph3.2 kmh 30.31 in1026.4 mb 0.00 in0.0 mm 0.00 in/hr0.0 mm/hr 0.00 in0.0 mm
06:32 AM 45.0°F7.2°C 43.7°F6.5°C 95% 2.0 mph SW3.2 kmh SW 2.0 mph3.2 kmh 30.32 in1026.8 mb 0.00 in0.0 mm 0.00 in/hr0.0 mm/hr 0.00 in0.0 mm
06:24 AM 45.0°F7.2°C 43.7°F6.5°C 95% 2.0 mph SW3.2 kmh SW 2.0 mph3.2 kmh 30.31 in1026.4 mb 0.00 in0.0 mm 0.00 in/hr0.0 mm/hr 0.00 in0.0 mm
06:16 AM 45.0°F7.2°C 43.7°F6.5°C 95% 2.0 mph SW3.2 kmh SW 2.0 mph3.2 kmh 30.31 in1026.4 mb 0.00 in0.0 mm 0.00 in/hr0.0 mm/hr 0.00 in0.0 mm
06:08 AM 45.0°F7.2°C 43.7°F6.5°C 95% 2.0 mph SW3.2 kmh SW 2.0 mph3.2 kmh 30.32 in1026.8 mb 0.00 in0.0 mm 0.00 in/hr0.0 mm/hr 0.00 in0.0 mm
06:00 AM 45.0°F7.2°C 43.7°F6.5°C 95% 2.0 mph SW3.2 kmh SW 2.0 mph3.2 kmh 30.31 in1026.4 mb 0.00 in0.0 mm 0.00 in/hr0.0 mm/hr 0.00 in0.0 mm
05:52 AM 45.0°F7.2°C 43.7°F6.5°C 95% 2.0 mph SW3.2 kmh SW 2.0 mph3.2 kmh 30.30 in1026.1 mb 0.00 in0.0 mm 0.00 in/hr0.0 mm/hr 0.00 in0.0 mm
05:44 AM 45.0°F7.2°C 43.7°F6.5°C 95% 2.0 mph SW3.2 kmh SW 2.0 mph3.2 kmh 30.30 in1026.1 mb 0.00 in0.0 mm 0.00 in/hr0.0 mm/hr 0.00 in0.0 mm
05:36 AM 45.0°F7.2°C 43.7°F6.5°C 95% 2.0 mph SW3.2 kmh SW 2.0 mph3.2 kmh 30.30 in1026.1 mb 0.00 in0.0 mm 0.00 in/hr0.0 mm/hr 0.00 in0.0 mm
05:28 AM 45.0°F7.2°C 43.7°F6.5°C 95% 2.0 mph SW3.2 kmh SW 2.0 mph3.2 kmh 30.30 in1026.1 mb 0.00 in0.0 mm 0.00 in/hr0.0 mm/hr 0.00 in0.0 mm
05:20 AM 45.0°F7.2°C 43.7°F6.5°C 95% 2.0 mph SW3.2 kmh SW 2.0 mph3.2 kmh 30.30 in1026.1 mb 0.00 in0.0 mm 0.00 in/hr0.0 mm/hr 0.00 in0.0 mm
05:12 AM 45.0°F7.2°C 43.7°F6.5°C 95% 2.0 mph SW3.2 kmh SW 2.0 mph3.2 kmh 30.29 in1025.7 mb 0.00 in0.0 mm 0.00 in/hr0.0 mm/hr 0.00 in0.0 mm
05:04 AM 45.0°F7.2°C 43.7°F6.5°C 95% 2.0 mph SW3.2 kmh SW 2.0 mph3.2 kmh 30.30 in1026.1 mb 0.00 in0.0 mm 0.00 in/hr0.0 mm/hr 0.00 in0.0 mm
04:56 AM 45.0°F7.2°C 43.7°F6.5°C 95% 2.0 mph SW3.2 kmh SW 2.0 mph3.2 kmh 30.30 in1026.1 mb 0.00 in0.0 mm 0.00 in/hr0.0 mm/hr 0.00 in0.0 mm
04:48 AM 45.0°F7.2°C 43.7°F6.5°C 95% 2.0 mph SW3.2 kmh SW 2.0 mph3.2 kmh 30.30 in1026.1 mb 0.00 in0.0 mm 0.00 in/hr0.0 mm/hr 0.00 in0.0 mm
04:40 AM 45.0°F7.2°C 43.7°F6.5°C 95% 2.0 mph SW3.2 kmh SW 2.0 mph3.2 kmh 30.30 in1026.1 mb 0.00 in0.0 mm 0.00 in/hr0.0 mm/hr 0.00 in0.0 mm
04:32 AM 45.0°F7.2°C 43.7°F6.5°C 95% 2.0 mph SW3.2 kmh SW 2.0 mph3.2 kmh 30.30 in1026.1 mb 0.00 in0.0 mm 0.00 in/hr0.0 mm/hr 0.00 in0.0 mm
04:24 AM 45.0°F7.2°C 43.7°F6.5°C 95% 2.0 mph SW3.2 kmh SW 2.0 mph3.2 kmh 30.29 in1025.7 mb 0.00 in0.0 mm 0.00 in/hr0.0 mm/hr 0.00 in0.0 mm
04:16 AM 45.0°F7.2°C 43.7°F6.5°C 95% 2.0 mph SW3.2 kmh SW 2.0 mph3.2 kmh 30.30 in1026.1 mb 0.00 in0.0 mm 0.00 in/hr0.0 mm/hr 0.00 in0.0 mm
04:08 AM 45.0°F7.2°C 43.7°F6.5°C 95% 2.0 mph SW3.2 kmh SW 2.0 mph3.2 kmh 30.30 in1026.1 mb 0.00 in0.0 mm 0.00 in/hr0.0 mm/hr 0.00 in0.0 mm
04:00 AM 45.0°F7.2°C 43.7°F6.5°C 95% 2.0 mph SW3.2 kmh SW 2.0 mph3.2 kmh 30.30 in1026.1 mb 0.00 in0.0 mm 0.00 in/hr0.0 mm/hr 0.00 in0.0 mm
03:52 AM 45.0°F7.2°C 43.7°F6.5°C 95% 2.0 mph SW3.2 kmh SW 2.0 mph3.2 kmh 30.31 in1026.4 mb 0.00 in0.0 mm 0.00 in/hr0.0 mm/hr 0.00 in0.0 mm
03:44 AM 45.0°F7.2°C 43.7°F6.5°C 95% 2.0 mph SW3.2 kmh SW 2.0 mph3.2 kmh 30.30 in1026.1 mb 0.00 in0.0 mm 0.00 in/hr0.0 mm/hr 0.00 in0.0 mm
03:36 AM 45.0°F7.2°C 43.7°F6.5°C 95% 2.0 mph SW3.2 kmh SW 2.0 mph3.2 kmh 30.31 in1026.4 mb 0.00 in0.0 mm 0.00 in/hr0.0 mm/hr 0.00 in0.0 mm
03:28 AM 45.0°F7.2°C 43.7°F6.5°C 95% 2.0 mph SW3.2 kmh SW 2.0 mph3.2 kmh 30.31 in1026.4 mb 0.00 in0.0 mm 0.00 in/hr0.0 mm/hr 0.00 in0.0 mm
03:20 AM 45.0°F7.2°C 43.7°F6.5°C 95% 2.0 mph SW3.2 kmh SW 2.0 mph3.2 kmh 30.31 in1026.4 mb 0.00 in0.0 mm 0.00 in/hr0.0 mm/hr 0.00 in0.0 mm
03:12 AM 45.0°F7.2°C 43.7°F6.5°C 95% 2.0 mph SW3.2 kmh SW 2.0 mph3.2 kmh 30.31 in1026.4 mb 0.00 in0.0 mm 0.00 in/hr0.0 mm/hr 0.00 in0.0 mm
03:04 AM 45.0°F7.2°C 43.7°F6.5°C 95% 2.0 mph SW3.2 kmh SW 2.0 mph3.2 kmh 30.32 in1026.8 mb 0.00 in0.0 mm 0.00 in/hr0.0 mm/hr 0.00 in0.0 mm
02:56 AM 45.0°F7.2°C 43.7°F6.5°C 95% 2.0 mph SW3.2 kmh SW 2.0 mph3.2 kmh 30.32 in1026.8 mb 0.00 in0.0 mm 0.00 in/hr0.0 mm/hr 0.00 in0.0 mm
02:48 AM 45.0°F7.2°C 43.7°F6.5°C 95% 2.0 mph SW3.2 kmh SW 2.0 mph3.2 kmh 30.33 in1027.1 mb 0.00 in0.0 mm 0.00 in/hr0.0 mm/hr 0.00 in0.0 mm
02:40 AM 45.0°F7.2°C 43.7°F6.5°C 95% 2.0 mph SW3.2 kmh SW 2.0 mph3.2 kmh 30.33 in1027.1 mb 0.00 in0.0 mm 0.00 in/hr0.0 mm/hr 0.00 in0.0 mm
02:32 AM 45.0°F7.2°C 43.7°F6.5°C 95% 2.0 mph SW3.2 kmh SW 2.0 mph3.2 kmh 30.34 in1027.4 mb 0.00 in0.0 mm 0.00 in/hr0.0 mm/hr 0.00 in0.0 mm
02:24 AM 45.0°F7.2°C 43.7°F6.5°C 95% 2.0 mph SW3.2 kmh SW 2.0 mph3.2 kmh 30.34 in1027.4 mb 0.00 in0.0 mm 0.00 in/hr0.0 mm/hr 0.00 in0.0 mm
02:16 AM 45.0°F7.2°C 43.7°F6.5°C 95% 2.0 mph SW3.2 kmh SW 2.0 mph3.2 kmh 30.35 in1027.8 mb 0.00 in0.0 mm 0.00 in/hr0.0 mm/hr 0.00 in0.0 mm
02:08 AM 45.0°F7.2°C 43.7°F6.5°C 95% 3.0 mph SW4.8 kmh SW 3.0 mph4.8 kmh 30.35 in1027.8 mb 0.00 in0.0 mm 0.00 in/hr0.0 mm/hr 0.00 in0.0 mm
02:00 AM 45.3°F7.4°C 44.0°F6.7°C 95% Calm Calm 1.0 mph1.6 kmh 30.35 in1027.8 mb 0.00 in0.0 mm 0.00 in/hr0.0 mm/hr 0.00 in0.0 mm
01:52 AM 45.3°F7.4°C 44.0°F6.7°C 95% Calm Calm 1.0 mph1.6 kmh 30.35 in1027.8 mb 0.00 in0.0 mm 0.00 in/hr0.0 mm/hr 0.00 in0.0 mm
01:44 AM 45.3°F7.4°C 43.7°F6.5°C 94% 2.0 mph SW3.2 kmh SW 2.0 mph3.2 kmh 30.35 in1027.8 mb 0.00 in0.0 mm 0.00 in/hr0.0 mm/hr 0.00 in0.0 mm
01:36 AM 45.3°F7.4°C 43.7°F6.5°C 94% Calm Calm 1.0 mph1.6 kmh 30.35 in1027.8 mb 0.00 in0.0 mm 0.00 in/hr0.0 mm/hr 0.00 in0.0 mm
01:28 AM 45.4°F7.4°C 43.8°F6.6°C 94% 2.0 mph SW3.2 kmh SW 3.0 mph4.8 kmh 30.35 in1027.8 mb 0.00 in0.0 mm 0.00 in/hr0.0 mm/hr 0.00 in0.0 mm
01:20 AM 45.5°F7.5°C 43.6°F6.4°C 93% Calm Calm -- 30.35 in1027.8 mb 0.00 in0.0 mm 0.00 in/hr0.0 mm/hr 0.00 in0.0 mm
01:12 AM 45.6°F7.6°C 43.7°F6.5°C 93% Calm Calm -- 30.35 in1027.8 mb 0.00 in0.0 mm 0.00 in/hr0.0 mm/hr 0.00 in0.0 mm
01:04 AM 45.6°F7.6°C 43.7°F6.5°C 93% Calm Calm -- 30.35 in1027.8 mb 0.00 in0.0 mm 0.00 in/hr0.0 mm/hr 0.00 in0.0 mm
12:56 AM 45.6°F7.6°C 43.7°F6.5°C 93% Calm Calm -- 30.36 in1028.1 mb 0.00 in0.0 mm 0.00 in/hr0.0 mm/hr 0.00 in0.0 mm
12:48 AM 45.6°F7.6°C 43.7°F6.5°C 93% Calm Calm -- 30.35 in1027.8 mb 0.00 in0.0 mm 0.00 in/hr0.0 mm/hr 0.00 in0.0 mm
12:40 AM 45.5°F7.5°C 43.6°F6.4°C 93% Calm Calm -- 30.35 in1027.8 mb 0.00 in0.0 mm 0.00 in/hr0.0 mm/hr 0.00 in0.0 mm
12:32 AM 45.5°F7.5°C 43.6°F6.4°C 93% Calm Calm -- 30.36 in1028.1 mb 0.00 in0.0 mm 0.00 in/hr0.0 mm/hr 0.00 in0.0 mm
12:24 AM 45.4°F7.4°C 43.5°F6.4°C 93% Calm Calm -- 30.37 in1028.4 mb 0.00 in0.0 mm 0.00 in/hr0.0 mm/hr 0.00 in0.0 mm
12:16 AM 45.5°F7.5°C 43.6°F6.4°C 93% Calm Calm -- 30.37 in1028.4 mb 0.00 in0.0 mm 0.00 in/hr0.0 mm/hr 0.00 in0.0 mm
12:08 AM 45.6°F7.6°C 43.7°F6.5°C 93% Calm Calm -- 30.37 in1028.4 mb 0.00 in0.0 mm 0.00 in/hr0.0 mm/hr 0.00 in0.0 mm
12:00 AM 45.6°F7.6°C 43.4°F6.3°C 92% Calm Calm -- 30.38 in1028.8 mb 0.00 in0.0 mm 0.00 in/hr0.0 mm/hr 0.00 in0.0 mm